Time,TemperatureF,DewpointF,PressureIn,WindDirection,WindDirectionDegrees,WindSpeedMPH,WindSpeedGustMPH,Humidity,HourlyPrecipIn,Conditions,Clouds,dailyrainin,SoftwareType,DateUTC
2013-07-09 00:16:00,70.4,70.0,30.11,ENE,77,1.0,2.0,97,0.00,,,0.00,weatherlink.com 1.10,2013-07-09 04:16:00,
2013-07-09 00:32:00,70.3,70.0,30.11,ENE,77,0.0,0.0,98,0.00,,,0.00,weatherlink.com 1.10,2013-07-09 04:32:00,
2013-07-09 00:47:00,70.1,70.0,30.12,ENE,77,0.0,2.0,98,0.00,,,0.00,weatherlink.com 1.10,2013-07-09 04:47:00,
2013-07-09 01:02:00,69.9,69.0,30.13,West,280,2.0,4.0,98,0.00,,,0.00,weatherlink.com 1.10,2013-07-09 05:02:00,
2013-07-09 01:17:00,69.8,69.0,30.12,West,280,0.0,2.0,98,0.00,,,0.00,weatherlink.com 1.10,2013-07-09 05:17:00,
2013-07-09 01:32:00,69.5,69.0,30.11,North,8,1.0,2.0,98,0.00,,,0.00,weatherlink.com 1.10,2013-07-09 05:32:00,
2013-07-09 01:47:00,69.4,69.0,30.11,South,177,0.0,4.0,98,0.00,,,0.00,weatherlink.com 1.10,2013-07-09 05:47:00,
2013-07-09 02:02:00,69.3,69.0,30.11,South,177,1.0,3.0,98,0.00,,,0.00,weatherlink.com 1.10,2013-07-09 06:02:00,
2013-07-09 02:17:00,69.2,69.0,30.10,SSW,213,0.0,2.0,99,0.00,,,0.00,weatherlink.com 1.10,2013-07-09 06:17:00,
2013-07-09 02:32:00,68.9,68.0,30.10,ESE,105,0.0,2.0,98,0.00,,,0.00,weatherlink.com 1.10,2013-07-09 06:32:00,
2013-07-09 02:47:00,68.6,68.0,30.10,ESE,105,0.0,2.0,98,0.00,,,0.00,weatherlink.com 1.10,2013-07-09 06:47:00,
2013-07-09 03:02:00,68.7,68.0,30.10,ESE,105,0.0,2.0,99,0.00,,,0.00,weatherlink.com 1.10,2013-07-09 07:02:00,
2013-07-09 03:17:00,68.9,69.0,30.10,ESE,105,0.0,2.0,99,0.00,,,0.00,weatherlink.com 1.10,2013-07-09 07:17:00,
2013-07-09 03:47:00,68.8,69.0,30.10,East,88,0.0,1.0,99,0.00,,,0.00,weatherlink.com 1.10,2013-07-09 07:47:00,
2013-07-09 04:02:00,68.5,68.0,30.10,East,88,0.0,1.0,99,0.00,,,0.00,weatherlink.com 1.10,2013-07-09 08:02:00,
2013-07-09 04:17:00,68.5,68.0,30.10,East,88,0.0,0.0,99,0.00,,,0.00,weatherlink.com 1.10,2013-07-09 08:17:00,
2013-07-09 04:32:00,68.5,68.0,30.10,East,88,0.0,3.0,99,0.00,,,0.00,weatherlink.com 1.10,2013-07-09 08:32:00,
2013-07-09 04:47:00,68.5,68.0,30.09,East,88,0.0,1.0,99,0.00,,,0.00,weatherlink.com 1.10,2013-07-09 08:47:00,
2013-07-09 05:02:00,68.6,68.0,30.09,East,88,1.0,2.0,99,0.00,,,0.00,weatherlink.com 1.10,2013-07-09 09:02:00,
2013-07-09 05:17:00,68.7,68.0,30.09,ENE,76,0.0,3.0,99,0.00,,,0.00,weatherlink.com 1.10,2013-07-09 09:17:00,
2013-07-09 05:32:00,68.7,68.0,30.08,ENE,76,0.0,1.0,99,0.00,,,0.00,weatherlink.com 1.10,2013-07-09 09:32:00,
2013-07-09 05:47:00,68.6,68.0,30.08,ENE,76,1.0,1.0,99,0.00,,,0.00,weatherlink.com 1.10,2013-07-09 09:47:00,
2013-07-09 06:02:00,68.6,68.0,30.08,NE,50,3.0,3.0,99,0.00,,,0.00,weatherlink.com 1.10,2013-07-09 10:02:00,
2013-07-09 06:17:00,68.6,68.0,30.08,ENE,68,1.0,3.0,99,0.00,,,0.00,weatherlink.com 1.10,2013-07-09 10:17:00,
2013-07-09 06:32:00,68.5,68.0,30.08,ESE,118,2.0,4.0,99,0.00,,,0.00,weatherlink.com 1.10,2013-07-09 10:32:00,
2013-07-09 06:47:00,68.5,68.0,30.08,ESE,118,1.0,1.0,99,0.00,,,0.00,weatherlink.com 1.10,2013-07-09 10:47:00,
2013-07-09 07:02:00,68.5,68.0,30.08,SW,230,1.0,2.0,99,0.00,,,0.00,weatherlink.com 1.10,2013-07-09 11:02:00,
2013-07-09 07:17:00,68.6,68.0,30.09,SW,230,0.0,1.0,99,0.00,,,0.00,weatherlink.com 1.10,2013-07-09 11:17:00,
2013-07-09 07:32:00,68.8,69.0,30.09,SSW,212,3.0,4.0,99,0.00,,,0.00,weatherlink.com 1.10,2013-07-09 11:32:00,
2013-07-09 07:48:00,68.9,69.0,30.10,SSW,209,0.0,3.0,99,0.00,,,0.00,weatherlink.com 1.10,2013-07-09 11:48:00,
2013-07-09 08:03:00,69.2,69.0,30.11,SW,218,2.0,3.0,99,0.00,,,0.00,weatherlink.com 1.10,2013-07-09 12:03:00,
2013-07-09 08:18:00,69.5,69.0,30.11,SSW,202,1.0,2.0,99,0.00,,,0.00,weatherlink.com 1.10,2013-07-09 12:18:00,
2013-07-09 08:33:00,69.5,69.0,30.12,SSW,202,2.0,2.0,99,0.00,,,0.00,weatherlink.com 1.10,2013-07-09 12:33:00,
2013-07-09 08:48:00,69.6,69.0,30.12,SW,229,0.0,4.0,99,0.00,,,0.00,weatherlink.com 1.10,2013-07-09 12:48:00,
2013-07-09 09:03:00,70.0,70.0,30.12,ESE,112,3.0,3.0,99,0.00,,,0.00,weatherlink.com 1.10,2013-07-09 13:03:00,
2013-07-09 09:18:00,70.0,70.0,30.13,ESE,116,0.0,2.0,99,0.00,,,0.00,weatherlink.com 1.10,2013-07-09 13:18:00,
2013-07-09 09:33:00,70.5,70.0,30.13,SSE,160,0.0,3.0,99,0.00,,,0.00,weatherlink.com 1.10,2013-07-09 13:33:00,
2013-07-09 09:48:00,71.2,71.0,30.13,South,177,0.0,4.0,98,0.00,,,0.00,weatherlink.com 1.10,2013-07-09 13:48:00,
2013-07-09 10:03:00,71.9,71.0,30.13,West,280,2.0,3.0,98,0.00,,,0.00,weatherlink.com 1.10,2013-07-09 14:03:00,
2013-07-09 10:18:00,72.2,71.0,30.12,NW,305,1.0,3.0,95,0.00,,,0.00,weatherlink.com 1.10,2013-07-09 14:18:00,
2013-07-09 10:33:00,73.1,71.0,30.12,SW,217,0.0,2.0,93,0.00,,,0.00,weatherlink.com 1.10,2013-07-09 14:33:00,
2013-07-09 10:48:00,75.1,72.0,30.13,WSW,243,0.0,2.0,91,0.00,,,0.00,weatherlink.com 1.10,2013-07-09 14:48:00,
2013-07-09 11:03:00,76.1,72.0,30.13,South,181,2.0,3.0,87,0.00,,,0.00,weatherlink.com 1.10,2013-07-09 15:03:00,
2013-07-09 11:18:00,77.4,73.0,30.13,South,179,1.0,3.0,85,0.00,,,0.00,weatherlink.com 1.10,2013-07-09 15:18:00,
2013-07-09 11:33:00,79.1,74.0,30.13,NW,320,2.0,3.0,83,0.00,,,0.00,weatherlink.com 1.10,2013-07-09 15:33:00,
2013-07-09 11:48:00,79.7,73.0,30.13,WSW,255,0.0,5.0,81,0.00,,,0.00,weatherlink.com 1.10,2013-07-09 15:48:00,
2013-07-09 12:03:00,80.8,73.0,30.13,WSW,258,2.0,4.0,77,0.00,,,0.00,weatherlink.com 1.10,2013-07-09 16:03:00,
2013-07-09 12:18:00,81.2,71.0,30.12,West,267,2.0,4.0,71,0.00,,,0.00,weatherlink.com 1.10,2013-07-09 16:18:00,
2013-07-09 12:33:00,82.4,71.0,30.12,South,169,0.0,4.0,69,0.00,,,0.00,weatherlink.com 1.10,2013-07-09 16:33:00,
2013-07-09 12:48:00,83.7,71.0,30.12,East,85,1.0,5.0,66,0.00,,,0.00,weatherlink.com 1.10,2013-07-09 16:48:00,
2013-07-09 13:03:00,85.3,72.0,30.11,NW,305,5.0,5.0,65,0.00,,,0.00,weatherlink.com 1.10,2013-07-09 17:03:00,
2013-07-09 13:18:00,85.9,73.0,30.10,ESE,111,3.0,5.0,65,0.00,,,0.00,weatherlink.com 1.10,2013-07-09 17:18:00,
2013-07-09 13:34:00,86.6,72.0,30.10,ESE,107,2.0,7.0,61,0.00,,,0.00,weatherlink.com 1.10,2013-07-09 17:34:00,
2013-07-09 13:49:00,87.4,72.0,30.10,SSE,158,2.0,4.0,61,0.00,,,0.00,weatherlink.com 1.10,2013-07-09 17:49:00,
2013-07-09 14:04:00,86.6,72.0,30.09,East,88,1.0,5.0,62,0.00,,,0.00,weatherlink.com 1.10,2013-07-09 18:04:00,
2013-07-09 14:19:00,86.8,73.0,30.09,South,189,2.0,5.0,63,0.00,,,0.00,weatherlink.com 1.10,2013-07-09 18:19:00,
2013-07-09 14:34:00,87.7,74.0,30.08,SE,129,1.0,6.0,63,0.00,,,0.00,weatherlink.com 1.10,2013-07-09 18:34:00,
2013-07-09 14:49:00,87.7,73.0,30.07,ESE,103,2.0,8.0,61,0.00,,,0.00,weatherlink.com 1.10,2013-07-09 18:49:00,
2013-07-09 15:04:00,88.5,72.0,30.07,SSE,156,0.0,4.0,59,0.00,,,0.00,weatherlink.com 1.10,2013-07-09 19:04:00,
2013-07-09 15:19:00,88.8,73.0,30.06,NNE,18,1.0,4.0,60,0.00,,,0.00,weatherlink.com 1.10,2013-07-09 19:19:00,
2013-07-09 15:49:00,88.6,70.0,30.05,South,184,1.0,4.0,54,0.00,,,0.00,weatherlink.com 1.10,2013-07-09 19:49:00,
2013-07-09 16:04:00,88.9,71.0,30.05,SSE,160,2.0,5.0,55,0.00,,,0.00,weatherlink.com 1.10,2013-07-09 20:04:00,
2013-07-09 16:19:00,87.8,71.0,30.04,SSW,208,1.0,6.0,57,0.00,,,0.00,weatherlink.com 1.10,2013-07-09 20:19:00,
2013-07-09 16:34:00,88.3,68.0,30.03,SSE,155,0.0,4.0,51,0.00,,,0.00,weatherlink.com 1.10,2013-07-09 20:34:00,
2013-07-09 16:50:00,88.9,71.0,30.03,West,260,5.0,5.0,56,0.00,,,0.00,weatherlink.com 1.10,2013-07-09 20:50:00,
2013-07-09 17:05:00,89.2,72.0,30.02,SE,142,1.0,4.0,57,0.00,,,0.00,weatherlink.com 1.10,2013-07-09 21:05:00,
2013-07-09 17:20:00,88.4,71.0,30.01,West,277,3.0,5.0,57,0.00,,,0.00,weatherlink.com 1.10,2013-07-09 21:20:00,
2013-07-09 17:35:00,88.6,73.0,30.01,SW,231,2.0,5.0,60,0.00,,,0.00,weatherlink.com 1.10,2013-07-09 21:35:00,
2013-07-09 17:50:00,87.9,72.0,30.01,South,182,3.0,5.0,60,0.00,,,0.00,weatherlink.com 1.10,2013-07-09 21:50:00,
2013-07-09 18:05:00,87.8,74.0,30.00,SW,220,3.0,5.0,64,0.00,,,0.00,weatherlink.com 1.10,2013-07-09 22:05:00,
2013-07-09 18:20:00,87.6,75.0,30.01,SSW,197,3.0,7.0,66,0.00,,,0.00,weatherlink.com 1.10,2013-07-09 22:20:00,
2013-07-09 18:35:00,86.6,73.0,30.01,South,177,3.0,6.0,65,0.00,,,0.00,weatherlink.com 1.10,2013-07-09 22:35:00,
2013-07-09 18:50:00,85.5,74.0,30.01,South,191,4.0,6.0,69,0.00,,,0.00,weatherlink.com 1.10,2013-07-09 22:50:00,
2013-07-09 19:05:00,84.6,76.0,30.01,SSW,195,2.0,4.0,74,0.00,,,0.00,weatherlink.com 1.10,2013-07-09 23:05:00,
2013-07-09 19:19:00,-999.0,-99.9,0.00,North,-999,-999.0,-999.0,-999,0.00,,,0.00,weatherlink.com 1.10,2013-07-09 23:19:00,
2013-07-09 19:33:00,83.3,-99.9,30.03,SSW,201,3.0,4.0,-999,0.00,,,0.00,weatherlink.com 1.10,2013-07-09 23:33:00,
2013-07-09 19:48:00,82.5,75.0,30.02,SW,234,1.0,3.0,77,0.00,,,0.00,weatherlink.com 1.10,2013-07-09 23:48:00,
2013-07-09 20:03:00,81.7,75.0,30.02,SSW,198,2.0,3.0,79,0.00,,,0.00,weatherlink.com 1.10,2013-07-10 00:03:00,
2013-07-09 20:18:00,80.7,74.0,30.03,South,179,2.0,6.0,81,0.00,,,0.00,weatherlink.com 1.10,2013-07-10 00:18:00,
2013-07-09 20:33:00,80.5,74.0,30.03,South,181,0.0,1.0,81,0.00,,,0.00,weatherlink.com 1.10,2013-07-10 00:33:00,
2013-07-09 20:48:00,80.0,74.0,30.03,SSE,150,0.0,1.0,82,0.00,,,0.00,weatherlink.com 1.10,2013-07-10 00:48:00,
2013-07-09 21:03:00,79.7,74.0,30.03,SSE,150,1.0,2.0,83,0.00,,,0.00,weatherlink.com 1.10,2013-07-10 01:03:00,
2013-07-09 21:18:00,78.8,74.0,30.03,SSE,150,0.0,1.0,85,0.00,,,0.00,weatherlink.com 1.10,2013-07-10 01:18:00,
2013-07-09 21:33:00,78.2,74.0,30.03,SSE,149,2.0,4.0,86,0.00,,,0.00,weatherlink.com 1.10,2013-07-10 01:33:00,
2013-07-09 21:48:00,77.1,74.0,30.05,NE,51,0.0,4.0,90,0.00,,,0.00,weatherlink.com 1.10,2013-07-10 01:48:00,
2013-07-09 22:03:00,77.0,74.0,30.05,NE,34,0.0,3.0,90,0.00,,,0.00,weatherlink.com 1.10,2013-07-10 02:03:00,
2013-07-09 22:18:00,76.8,74.0,30.06,ENE,68,0.0,3.0,91,0.00,,,0.00,weatherlink.com 1.10,2013-07-10 02:18:00,
2013-07-09 22:33:00,76.3,73.0,30.07,ESE,105,2.0,5.0,89,0.00,,,0.00,weatherlink.com 1.10,2013-07-10 02:33:00,
2013-07-09 22:49:00,75.4,73.0,30.07,SE,135,4.0,8.0,92,0.00,,,0.00,weatherlink.com 1.10,2013-07-10 02:49:00,
2013-07-09 23:04:00,73.6,72.0,30.08,SSW,197,7.0,10.0,96,0.00,,,0.00,weatherlink.com 1.10,2013-07-10 03:04:00,
2013-07-09 23:19:00,72.2,71.0,30.09,WSW,239,11.0,20.0,97,0.00,,,0.00,weatherlink.com 1.10,2013-07-10 03:19:00,
2013-07-09 23:34:00,71.9,71.0,30.08,West,261,3.0,12.0,97,0.00,,,0.00,weatherlink.com 1.10,2013-07-10 03:34:00,
2013-07-09 23:49:00,71.7,71.0,30.07,WNW,283,3.0,8.0,97,0.00,,,0.00,weatherlink.com 1.10,2013-07-10 03:49:00,